sensor_id;sensor_type;location;lat;lon;timestamp;P1;durP1;ratioP1;P2;durP2;ratioP2
35312;SDS011;21425;50.454;30.466;2022-09-17T00:01:09;8.68;;;4.28;;
35312;SDS011;21425;50.454;30.466;2022-09-17T00:03:42;8.45;;;4.95;;
35312;SDS011;21425;50.454;30.466;2022-09-17T00:06:11;6.65;;;5.00;;
35312;SDS011;21425;50.454;30.466;2022-09-17T00:08:38;8.82;;;5.40;;
35312;SDS011;21425;50.454;30.466;2022-09-17T00:11:08;7.55;;;5.28;;
35312;SDS011;21425;50.454;30.466;2022-09-17T00:13:37;17.55;;;6.07;;
35312;SDS011;21425;50.454;30.466;2022-09-17T00:16:04;8.60;;;5.20;;
35312;SDS011;21425;50.454;30.466;2022-09-17T00:18:30;11.40;;;5.70;;
35312;SDS011;21425;50.454;30.466;2022-09-17T00:20:56;8.73;;;5.97;;
35312;SDS011;21425;50.454;30.466;2022-09-17T00:23:22;13.15;;;6.53;;
35312;SDS011;21425;50.454;30.466;2022-09-17T00:25:47;8.88;;;6.45;;
35312;SDS011;21425;50.454;30.466;2022-09-17T00:28:13;9.32;;;6.25;;
35312;SDS011;21425;50.454;30.466;2022-09-17T00:30:40;11.50;;;6.47;;
35312;SDS011;21425;50.454;30.466;2022-09-17T00:33:10;10.60;;;6.45;;
35312;SDS011;21425;50.454;30.466;2022-09-17T00:35:37;11.27;;;6.53;;
35312;SDS011;21425;50.454;30.466;2022-09-17T00:38:03;9.15;;;6.53;;
35312;SDS011;21425;50.454;30.466;2022-09-17T00:40:29;11.77;;;7.07;;
35312;SDS011;21425;50.454;30.466;2022-09-17T00:42:54;12.85;;;7.00;;
35312;SDS011;21425;50.454;30.466;2022-09-17T00:45:20;11.77;;;7.45;;
35312;SDS011;21425;50.454;30.466;2022-09-17T00:47:50;17.35;;;8.52;;
35312;SDS011;21425;50.454;30.466;2022-09-17T00:50:40;13.93;;;8.82;;
35312;SDS011;21425;50.454;30.466;2022-09-17T00:53:09;11.77;;;7.55;;
35312;SDS011;21425;50.454;30.466;2022-09-17T00:55:58;13.57;;;8.95;;
35312;SDS011;21425;50.454;30.466;2022-09-17T00:58:28;12.63;;;7.57;;
35312;SDS011;21425;50.454;30.466;2022-09-17T01:00:56;13.32;;;8.00;;
35312;SDS011;21425;50.454;30.466;2022-09-17T01:03:22;13.27;;;8.25;;
35312;SDS011;21425;50.454;30.466;2022-09-17T01:05:49;11.00;;;8.05;;
35312;SDS011;21425;50.454;30.466;2022-09-17T01:08:43;12.40;;;7.50;;
35312;SDS011;21425;50.454;30.466;2022-09-17T01:16:55;12.50;;;6.55;;
35312;SDS011;21425;50.454;30.466;2022-09-17T01:33:56;12.77;;;6.30;;
35312;SDS011;21425;50.454;30.466;2022-09-17T01:36:31;9.27;;;5.95;;
35312;SDS011;21425;50.454;30.466;2022-09-17T01:44:31;9.27;;;5.63;;
35312;SDS011;21425;50.454;30.466;2022-09-17T01:47:07;13.30;;;7.63;;
35312;SDS011;21425;50.454;30.466;2022-09-17T01:49:37;11.82;;;6.75;;
35312;SDS011;21425;50.454;30.466;2022-09-17T01:52:04;13.25;;;7.10;;
35312;SDS011;21425;50.454;30.466;2022-09-17T01:54:36;9.68;;;6.63;;
35312;SDS011;21425;50.454;30.466;2022-09-17T01:57:26;8.57;;;6.13;;
35312;SDS011;21425;50.454;30.466;2022-09-17T01:59:58;9.05;;;6.20;;
35312;SDS011;21425;50.454;30.466;2022-09-17T02:02:30;12.98;;;6.40;;
35312;SDS011;21425;50.454;30.466;2022-09-17T02:07:28;9.55;;;6.07;;
35312;SDS011;21425;50.454;30.466;2022-09-17T02:09:59;11.23;;;6.25;;
35312;SDS011;21425;50.454;30.466;2022-09-17T02:12:27;8.88;;;5.90;;
35312;SDS011;21425;50.454;30.466;2022-09-17T02:15:17;8.70;;;5.75;;
35312;SDS011;21425;50.454;30.466;2022-09-17T02:20:52;8.82;;;6.05;;
35312;SDS011;21425;50.454;30.466;2022-09-17T02:23:28;10.90;;;5.57;;
35312;SDS011;21425;50.454;30.466;2022-09-17T02:26:08;12.38;;;6.78;;
35312;SDS011;21425;50.454;30.466;2022-09-17T02:31:06;12.07;;;5.82;;
35312;SDS011;21425;50.454;30.466;2022-09-17T02:33:33;12.55;;;5.85;;
35312;SDS011;21425;50.454;30.466;2022-09-17T02:36:00;11.32;;;4.93;;
35312;SDS011;21425;50.454;30.466;2022-09-17T02:38:27;10.45;;;5.57;;
35312;SDS011;21425;50.454;30.466;2022-09-17T02:41:04;9.75;;;5.38;;
35312;SDS011;21425;50.454;30.466;2022-09-17T02:43:40;8.45;;;5.65;;
35312;SDS011;21425;50.454;30.466;2022-09-17T02:46:35;9.10;;;6.38;;
35312;SDS011;21425;50.454;30.466;2022-09-17T02:57:53;9.35;;;6.40;;
35312;SDS011;21425;50.454;30.466;2022-09-17T03:00:20;11.57;;;7.18;;
35312;SDS011;21425;50.454;30.466;2022-09-17T03:02:52;10.60;;;7.18;;
35312;SDS011;21425;50.454;30.466;2022-09-17T03:05:37;13.02;;;6.88;;
35312;SDS011;21425;50.454;30.466;2022-09-17T03:08:06;8.30;;;6.13;;
35312;SDS011;21425;50.454;30.466;2022-09-17T03:10:33;12.25;;;6.68;;
35312;SDS011;21425;50.454;30.466;2022-09-17T03:12:59;10.38;;;7.18;;
35312;SDS011;21425;50.454;30.466;2022-09-17T03:15:24;11.55;;;6.82;;
35312;SDS011;21425;50.454;30.466;2022-09-17T03:17:50;10.13;;;6.38;;
35312;SDS011;21425;50.454;30.466;2022-09-17T03:20:16;8.85;;;5.68;;
35312;SDS011;21425;50.454;30.466;2022-09-17T03:22:42;9.52;;;6.63;;
35312;SDS011;21425;50.454;30.466;2022-09-17T03:25:08;13.55;;;6.90;;
35312;SDS011;21425;50.454;30.466;2022-09-17T03:27:33;11.10;;;6.85;;
35312;SDS011;21425;50.454;30.466;2022-09-17T03:29:59;12.88;;;7.57;;
35312;SDS011;21425;50.454;30.466;2022-09-17T03:32:25;13.38;;;7.53;;
35312;SDS011;21425;50.454;30.466;2022-09-17T03:34:50;13.25;;;6.60;;
35312;SDS011;21425;50.454;30.466;2022-09-17T03:37:17;10.50;;;6.68;;
35312;SDS011;21425;50.454;30.466;2022-09-17T03:39:43;11.38;;;7.18;;
35312;SDS011;21425;50.454;30.466;2022-09-17T03:42:08;14.02;;;7.75;;
35312;SDS011;21425;50.454;30.466;2022-09-17T03:44:34;16.98;;;7.80;;
35312;SDS011;21425;50.454;30.466;2022-09-17T03:46:59;13.68;;;7.30;;
35312;SDS011;21425;50.454;30.466;2022-09-17T03:49:25;10.70;;;7.50;;
35312;SDS011;21425;50.454;30.466;2022-09-17T03:51:51;11.93;;;7.22;;
35312;SDS011;21425;50.454;30.466;2022-09-17T03:54:17;16.73;;;8.18;;
35312;SDS011;21425;50.454;30.466;2022-09-17T03:56:42;14.18;;;7.00;;
35312;SDS011;21425;50.454;30.466;2022-09-17T03:59:08;12.30;;;6.85;;
35312;SDS011;21425;50.454;30.466;2022-09-17T04:01:34;13.60;;;7.38;;
35312;SDS011;21425;50.454;30.466;2022-09-17T04:04:00;10.82;;;5.80;;
35312;SDS011;21425;50.454;30.466;2022-09-17T04:06:26;13.38;;;7.45;;
35312;SDS011;21425;50.454;30.466;2022-09-17T04:08:52;13.90;;;7.53;;
35312;SDS011;21425;50.454;30.466;2022-09-17T04:11:17;10.27;;;6.53;;
35312;SDS011;21425;50.454;30.466;2022-09-17T04:13:43;12.05;;;6.53;;
35312;SDS011;21425;50.454;30.466;2022-09-17T04:16:08;11.52;;;6.25;;
35312;SDS011;21425;50.454;30.466;2022-09-17T04:18:34;14.60;;;6.28;;
35312;SDS011;21425;50.454;30.466;2022-09-17T04:20:59;8.82;;;6.43;;
35312;SDS011;21425;50.454;30.466;2022-09-17T04:23:25;7.60;;;5.70;;
35312;SDS011;21425;50.454;30.466;2022-09-17T04:25:50;9.32;;;5.75;;
35312;SDS011;21425;50.454;30.466;2022-09-17T04:28:16;8.85;;;5.32;;
35312;SDS011;21425;50.454;30.466;2022-09-17T04:30:42;9.73;;;6.00;;
35312;SDS011;21425;50.454;30.466;2022-09-17T04:33:08;9.32;;;5.40;;
35312;SDS011;21425;50.454;30.466;2022-09-17T04:35:34;8.07;;;5.80;;
35312;SDS011;21425;50.454;30.466;2022-09-17T04:37:59;12.82;;;5.15;;
35312;SDS011;21425;50.454;30.466;2022-09-17T04:40:25;9.13;;;4.68;;
35312;SDS011;21425;50.454;30.466;2022-09-17T04:42:55;8.02;;;4.82;;
35312;SDS011;21425;50.454;30.466;2022-09-17T04:45:23;8.48;;;5.93;;
35312;SDS011;21425;50.454;30.466;2022-09-17T04:47:49;9.80;;;5.38;;
35312;SDS011;21425;50.454;30.466;2022-09-17T04:50:19;8.70;;;5.70;;
35312;SDS011;21425;50.454;30.466;2022-09-17T04:52:45;8.85;;;6.18;;
35312;SDS011;21425;50.454;30.466;2022-09-17T04:55:11;11.10;;;7.35;;
35312;SDS011;21425;50.454;30.466;2022-09-17T04:57:37;10.95;;;6.30;;
35312;SDS011;21425;50.454;30.466;2022-09-17T05:00:04;12.10;;;7.07;;
35312;SDS011;21425;50.454;30.466;2022-09-17T05:02:34;10.93;;;6.72;;
35312;SDS011;21425;50.454;30.466;2022-09-17T05:05:00;11.05;;;5.70;;
35312;SDS011;21425;50.454;30.466;2022-09-17T05:07:26;8.60;;;6.15;;
35312;SDS011;21425;50.454;30.466;2022-09-17T05:09:51;7.80;;;5.57;;
35312;SDS011;21425;50.454;30.466;2022-09-17T05:12:17;10.20;;;7.10;;
35312;SDS011;21425;50.454;30.466;2022-09-17T05:14:44;11.75;;;7.40;;
35312;SDS011;21425;50.454;30.466;2022-09-17T05:17:10;13.68;;;7.15;;
35312;SDS011;21425;50.454;30.466;2022-09-17T05:19:35;10.25;;;7.30;;
35312;SDS011;21425;50.454;30.466;2022-09-17T05:22:01;13.15;;;7.30;;
35312;SDS011;21425;50.454;30.466;2022-09-17T05:24:27;12.07;;;6.65;;
35312;SDS011;21425;50.454;30.466;2022-09-17T05:26:52;11.50;;;7.00;;
35312;SDS011;21425;50.454;30.466;2022-09-17T05:29:18;11.70;;;6.32;;
35312;SDS011;21425;50.454;30.466;2022-09-17T05:31:43;14.75;;;6.78;;
35312;SDS011;21425;50.454;30.466;2022-09-17T05:34:09;10.10;;;5.88;;
35312;SDS011;21425;50.454;30.466;2022-09-17T05:36:35;12.07;;;6.70;;
35312;SDS011;21425;50.454;30.466;2022-09-17T05:39:00;13.15;;;6.90;;
35312;SDS011;21425;50.454;30.466;2022-09-17T05:41:26;11.25;;;6.65;;
35312;SDS011;21425;50.454;30.466;2022-09-17T05:43:52;12.10;;;6.88;;
35312;SDS011;21425;50.454;30.466;2022-09-17T05:46:17;13.68;;;6.60;;
35312;SDS011;21425;50.454;30.466;2022-09-17T05:48:43;10.73;;;6.05;;
35312;SDS011;21425;50.454;30.466;2022-09-17T05:51:08;11.20;;;6.63;;
35312;SDS011;21425;50.454;30.466;2022-09-17T05:53:34;10.52;;;6.18;;
35312;SDS011;21425;50.454;30.466;2022-09-17T05:56:00;10.32;;;6.40;;
35312;SDS011;21425;50.454;30.466;2022-09-17T05:58:25;11.68;;;6.47;;
35312;SDS011;21425;50.454;30.466;2022-09-17T06:00:51;10.50;;;6.28;;
35312;SDS011;21425;50.454;30.466;2022-09-17T06:03:18;9.07;;;6.07;;
35312;SDS011;21425;50.454;30.466;2022-09-17T06:05:56;11.30;;;6.90;;
35312;SDS011;21425;50.454;30.466;2022-09-17T06:08:23;11.25;;;6.80;;
35312;SDS011;21425;50.454;30.466;2022-09-17T06:10:49;8.40;;;6.43;;
35312;SDS011;21425;50.454;30.466;2022-09-17T06:13:18;11.07;;;6.53;;
35312;SDS011;21425;50.454;30.466;2022-09-17T06:15:50;14.18;;;7.43;;
35312;SDS011;21425;50.454;30.466;2022-09-17T06:18:17;12.73;;;7.40;;
35312;SDS011;21425;50.454;30.466;2022-09-17T06:20:42;15.57;;;8.00;;
35312;SDS011;21425;50.454;30.466;2022-09-17T06:23:15;12.13;;;6.65;;
35312;SDS011;21425;50.454;30.466;2022-09-17T06:25:41;16.20;;;7.50;;
35312;SDS011;21425;50.454;30.466;2022-09-17T06:28:07;13.20;;;7.15;;
35312;SDS011;21425;50.454;30.466;2022-09-17T06:30:32;12.32;;;6.70;;
35312;SDS011;21425;50.454;30.466;2022-09-17T06:33:00;11.73;;;8.10;;
35312;SDS011;21425;50.454;30.466;2022-09-17T06:35:26;10.93;;;6.30;;
35312;SDS011;21425;50.454;30.466;2022-09-17T06:37:51;12.50;;;6.80;;
35312;SDS011;21425;50.454;30.466;2022-09-17T06:40:17;10.52;;;5.95;;
35312;SDS011;21425;50.454;30.466;2022-09-17T06:42:43;11.85;;;6.35;;
35312;SDS011;21425;50.454;30.466;2022-09-17T06:45:08;9.98;;;5.15;;
35312;SDS011;21425;50.454;30.466;2022-09-17T06:47:34;9.95;;;6.25;;
35312;SDS011;21425;50.454;30.466;2022-09-17T06:50:00;10.68;;;6.20;;
35312;SDS011;21425;50.454;30.466;2022-09-17T06:52:26;14.38;;;7.03;;
35312;SDS011;21425;50.454;30.466;2022-09-17T06:54:51;8.85;;;4.93;;
35312;SDS011;21425;50.454;30.466;2022-09-17T06:57:17;9.95;;;6.53;;
35312;SDS011;21425;50.454;30.466;2022-09-17T06:59:42;16.58;;;7.90;;
35312;SDS011;21425;50.454;30.466;2022-09-17T07:02:08;16.52;;;7.22;;
35312;SDS011;21425;50.454;30.466;2022-09-17T07:04:33;11.45;;;7.40;;
35312;SDS011;21425;50.454;30.466;2022-09-17T07:06:59;10.30;;;6.50;;
35312;SDS011;21425;50.454;30.466;2022-09-17T07:09:25;10.35;;;6.10;;
35312;SDS011;21425;50.454;30.466;2022-09-17T07:11:50;11.38;;;6.47;;
35312;SDS011;21425;50.454;30.466;2022-09-17T07:14:16;13.07;;;6.72;;
35312;SDS011;21425;50.454;30.466;2022-09-17T07:16:43;15.23;;;6.38;;
35312;SDS011;21425;50.454;30.466;2022-09-17T07:19:08;13.35;;;7.25;;
35312;SDS011;21425;50.454;30.466;2022-09-17T07:21:34;12.65;;;6.55;;
35312;SDS011;21425;50.454;30.466;2022-09-17T07:24:00;17.48;;;7.15;;
35312;SDS011;21425;50.454;30.466;2022-09-17T07:26:26;15.57;;;6.47;;
35312;SDS011;21425;50.454;30.466;2022-09-17T07:28:51;12.32;;;6.85;;
35312;SDS011;21425;50.454;30.466;2022-09-17T07:31:17;12.23;;;5.65;;
35312;SDS011;21425;50.454;30.466;2022-09-17T07:33:43;12.57;;;5.57;;
35312;SDS011;21425;50.454;30.466;2022-09-17T07:36:09;11.02;;;5.60;;
35312;SDS011;21425;50.454;30.466;2022-09-17T07:38:36;12.90;;;5.28;;
35312;SDS011;21425;50.454;30.466;2022-09-17T07:41:04;11.38;;;5.82;;
35312;SDS011;21425;50.454;30.466;2022-09-17T07:43:32;12.10;;;5.75;;
35312;SDS011;21425;50.454;30.466;2022-09-17T07:45:59;7.18;;;4.97;;
35312;SDS011;21425;50.454;30.466;2022-09-17T07:48:27;10.70;;;5.75;;
35312;SDS011;21425;50.454;30.466;2022-09-17T07:50:53;10.65;;;4.35;;
35312;SDS011;21425;50.454;30.466;2022-09-17T07:53:19;7.38;;;4.45;;
35312;SDS011;21425;50.454;30.466;2022-09-17T07:55:58;10.00;;;4.75;;
35312;SDS011;21425;50.454;30.466;2022-09-17T07:58:31;9.55;;;5.18;;
35312;SDS011;21425;50.454;30.466;2022-09-17T08:01:08;17.67;;;5.50;;
35312;SDS011;21425;50.454;30.466;2022-09-17T08:03:35;10.88;;;6.05;;
35312;SDS011;21425;50.454;30.466;2022-09-17T08:08:32;11.00;;;4.70;;
35312;SDS011;21425;50.454;30.466;2022-09-17T08:11:00;7.80;;;5.00;;
35312;SDS011;21425;50.454;30.466;2022-09-17T08:13:30;8.20;;;4.97;;
35312;SDS011;21425;50.454;30.466;2022-09-17T08:15:57;13.82;;;5.22;;
35312;SDS011;21425;50.454;30.466;2022-09-17T08:18:27;10.45;;;4.40;;
35312;SDS011;21425;50.454;30.466;2022-09-17T08:21:00;8.77;;;4.70;;
35312;SDS011;21425;50.454;30.466;2022-09-17T08:23:30;11.20;;;5.13;;
35312;SDS011;21425;50.454;30.466;2022-09-17T08:25:59;10.30;;;4.78;;
35312;SDS011;21425;50.454;30.466;2022-09-17T08:28:25;10.52;;;5.13;;
35312;SDS011;21425;50.454;30.466;2022-09-17T08:30:52;7.60;;;4.50;;
35312;SDS011;21425;50.454;30.466;2022-09-17T08:33:18;10.73;;;4.75;;
35312;SDS011;21425;50.454;30.466;2022-09-17T08:35:51;9.65;;;5.35;;
35312;SDS011;21425;50.454;30.466;2022-09-17T08:38:24;12.90;;;5.50;;
35312;SDS011;21425;50.454;30.466;2022-09-17T08:40:53;10.48;;;5.65;;
35312;SDS011;21425;50.454;30.466;2022-09-17T08:43:23;10.95;;;5.47;;
35312;SDS011;21425;50.454;30.466;2022-09-17T08:45:58;11.68;;;6.15;;
35312;SDS011;21425;50.454;30.466;2022-09-17T08:48:27;15.25;;;5.88;;
35312;SDS011;21425;50.454;30.466;2022-09-17T08:51:02;10.35;;;5.20;;
35312;SDS011;21425;50.454;30.466;2022-09-17T08:53:55;18.70;;;5.97;;
35312;SDS011;21425;50.454;30.466;2022-09-17T08:56:28;8.00;;;5.20;;
35312;SDS011;21425;50.454;30.466;2022-09-17T09:01:47;17.77;;;6.78;;
35312;SDS011;21425;50.454;30.466;2022-09-17T09:04:57;12.60;;;7.40;;
35312;SDS011;21425;50.454;30.466;2022-09-17T09:07:36;12.77;;;6.35;;
35312;SDS011;21425;50.454;30.466;2022-09-17T09:10:15;12.93;;;6.50;;
35312;SDS011;21425;50.454;30.466;2022-09-17T09:12:52;16.77;;;6.38;;
35312;SDS011;21425;50.454;30.466;2022-09-17T09:15:24;14.52;;;6.30;;
35312;SDS011;21425;50.454;30.466;2022-09-17T09:18:14;10.75;;;6.20;;
35312;SDS011;21425;50.454;30.466;2022-09-17T09:20:44;8.48;;;4.22;;
35312;SDS011;21425;50.454;30.466;2022-09-17T09:23:19;12.05;;;5.00;;
35312;SDS011;21425;50.454;30.466;2022-09-17T09:25:52;6.13;;;4.40;;
35312;SDS011;21425;50.454;30.466;2022-09-17T09:31:07;12.00;;;4.82;;
35312;SDS011;21425;50.454;30.466;2022-09-17T09:33:44;10.07;;;4.53;;
35312;SDS011;21425;50.454;30.466;2022-09-17T09:36:13;8.38;;;5.80;;
35312;SDS011;21425;50.454;30.466;2022-09-17T09:38:42;6.53;;;4.22;;
35312;SDS011;21425;50.454;30.466;2022-09-17T09:41:13;7.30;;;4.47;;
35312;SDS011;21425;50.454;30.466;2022-09-17T09:46:21;5.43;;;3.65;;
35312;SDS011;21425;50.454;30.466;2022-09-17T09:57:29;6.68;;;4.78;;
35312;SDS011;21425;50.454;30.466;2022-09-17T10:03:09;6.82;;;4.28;;
35312;SDS011;21425;50.454;30.466;2022-09-17T10:05:36;7.60;;;4.78;;
35312;SDS011;21425;50.454;30.466;2022-09-17T10:08:13;8.18;;;5.20;;
35312;SDS011;21425;50.454;30.466;2022-09-17T10:13:40;7.28;;;4.45;;
35312;SDS011;21425;50.454;30.466;2022-09-17T10:19:02;9.20;;;4.75;;
35312;SDS011;21425;50.454;30.466;2022-09-17T10:21:38;9.05;;;4.35;;
35312;SDS011;21425;50.454;30.466;2022-09-17T10:24:38;6.22;;;4.70;;
35312;SDS011;21425;50.454;30.466;2022-09-17T10:27:04;7.28;;;4.88;;
35312;SDS011;21425;50.454;30.466;2022-09-17T10:29:35;8.82;;;4.50;;
35312;SDS011;21425;50.454;30.466;2022-09-17T10:32:01;5.10;;;3.63;;
35312;SDS011;21425;50.454;30.466;2022-09-17T10:34:30;5.30;;;3.92;;
35312;SDS011;21425;50.454;30.466;2022-09-17T10:36:57;6.43;;;4.40;;
35312;SDS011;21425;50.454;30.466;2022-09-17T10:39:30;7.88;;;4.25;;
35312;SDS011;21425;50.454;30.466;2022-09-17T10:42:05;8.80;;;4.63;;
35312;SDS011;21425;50.454;30.466;2022-09-17T10:44:36;9.18;;;5.38;;
35312;SDS011;21425;50.454;30.466;2022-09-17T10:47:03;9.50;;;4.70;;
35312;SDS011;21425;50.454;30.466;2022-09-17T10:52:18;9.13;;;5.13;;
35312;SDS011;21425;50.454;30.466;2022-09-17T10:55:01;8.65;;;4.75;;
35312;SDS011;21425;50.454;30.466;2022-09-17T11:00:21;10.70;;;4.65;;
35312;SDS011;21425;50.454;30.466;2022-09-17T11:08:48;9.60;;;5.95;;
35312;SDS011;21425;50.454;30.466;2022-09-17T11:17:03;9.27;;;5.22;;
35312;SDS011;21425;50.454;30.466;2022-09-17T11:31:33;8.23;;;5.43;;
35312;SDS011;21425;50.454;30.466;2022-09-17T11:37:02;8.07;;;5.30;;
35312;SDS011;21425;50.454;30.466;2022-09-17T11:39:48;9.82;;;5.68;;
35312;SDS011;21425;50.454;30.466;2022-09-17T11:42:22;11.27;;;5.90;;
35312;SDS011;21425;50.454;30.466;2022-09-17T11:45:02;9.05;;;6.05;;
35312;SDS011;21425;50.454;30.466;2022-09-17T11:47:43;12.75;;;6.13;;
35312;SDS011;21425;50.454;30.466;2022-09-17T11:50:24;9.85;;;6.70;;
35312;SDS011;21425;50.454;30.466;2022-09-17T11:53:02;9.73;;;5.95;;
35312;SDS011;21425;50.454;30.466;2022-09-17T11:55:43;9.45;;;6.03;;
35312;SDS011;21425;50.454;30.466;2022-09-17T11:58:14;10.15;;;6.32;;
35312;SDS011;21425;50.454;30.466;2022-09-17T12:00:52;19.10;;;7.55;;
35312;SDS011;21425;50.454;30.466;2022-09-17T12:04:13;15.30;;;8.20;;
35312;SDS011;21425;50.454;30.466;2022-09-17T12:09:15;12.27;;;7.80;;
35312;SDS011;21425;50.454;30.466;2022-09-17T12:11:45;14.68;;;9.30;;
35312;SDS011;21425;50.454;30.466;2022-09-17T12:14:23;12.63;;;9.25;;
35312;SDS011;21425;50.454;30.466;2022-09-17T12:17:00;15.35;;;9.32;;
35312;SDS011;21425;50.454;30.466;2022-09-17T12:19:33;15.32;;;9.68;;
35312;SDS011;21425;50.454;30.466;2022-09-17T12:22:16;14.57;;;9.82;;
35312;SDS011;21425;50.454;30.466;2022-09-17T12:24:50;17.30;;;10.70;;
35312;SDS011;21425;50.454;30.466;2022-09-17T12:30:04;23.27;;;10.48;;
35312;SDS011;21425;50.454;30.466;2022-09-17T12:35:09;13.80;;;9.77;;
35312;SDS011;21425;50.454;30.466;2022-09-17T12:40:30;19.00;;;9.68;;
35312;SDS011;21425;50.454;30.466;2022-09-17T12:43:12;17.85;;;10.18;;
35312;SDS011;21425;50.454;30.466;2022-09-17T12:45:59;22.42;;;10.95;;
35312;SDS011;21425;50.454;30.466;2022-09-17T12:59:20;17.15;;;9.73;;
35312;SDS011;21425;50.454;30.466;2022-09-17T13:01:53;26.83;;;10.02;;
35312;SDS011;21425;50.454;30.466;2022-09-17T13:13:05;17.00;;;10.10;;
35312;SDS011;21425;50.454;30.466;2022-09-17T13:18:30;15.63;;;11.38;;
35312;SDS011;21425;50.454;30.466;2022-09-17T13:21:20;17.85;;;11.00;;
35312;SDS011;21425;50.454;30.466;2022-09-17T13:24:16;20.85;;;12.07;;
35312;SDS011;21425;50.454;30.466;2022-09-17T13:26:44;20.13;;;12.20;;
35312;SDS011;21425;50.454;30.466;2022-09-17T13:29:11;18.38;;;12.35;;
35312;SDS011;21425;50.454;30.466;2022-09-17T13:42:04;17.58;;;11.85;;
35312;SDS011;21425;50.454;30.466;2022-09-17T13:44:41;16.80;;;11.30;;
35312;SDS011;21425;50.454;30.466;2022-09-17T13:49:45;14.50;;;10.52;;
35312;SDS011;21425;50.454;30.466;2022-09-17T13:52:13;20.35;;;11.23;;
35312;SDS011;21425;50.454;30.466;2022-09-17T13:54:55;22.83;;;12.43;;
35312;SDS011;21425;50.454;30.466;2022-09-17T13:57:20;19.65;;;11.98;;
35312;SDS011;21425;50.454;30.466;2022-09-17T13:59:51;19.35;;;11.93;;
35312;SDS011;21425;50.454;30.466;2022-09-17T14:09:55;24.88;;;13.77;;
35312;SDS011;21425;50.454;30.466;2022-09-17T14:18:53;20.40;;;13.18;;
35312;SDS011;21425;50.454;30.466;2022-09-17T14:20:52;23.33;;;13.85;;
35312;SDS011;21425;50.454;30.466;2022-09-17T14:23:29;24.73;;;14.10;;
35312;SDS011;21425;50.454;30.466;2022-09-17T14:25:57;23.75;;;13.15;;
35312;SDS011;21425;50.454;30.466;2022-09-17T14:31:14;17.33;;;9.25;;
35312;SDS011;21425;50.454;30.466;2022-09-17T14:33:43;16.60;;;10.77;;
35312;SDS011;21425;50.454;30.466;2022-09-17T14:36:12;14.48;;;9.43;;
35312;SDS011;21425;50.454;30.466;2022-09-17T14:38:42;17.75;;;10.95;;
35312;SDS011;21425;50.454;30.466;2022-09-17T14:41:24;18.75;;;10.98;;
35312;SDS011;21425;50.454;30.466;2022-09-17T14:43:58;15.32;;;10.40;;
35312;SDS011;21425;50.454;30.466;2022-09-17T14:46:39;16.45;;;10.43;;
35312;SDS011;21425;50.454;30.466;2022-09-17T14:49:26;15.82;;;10.02;;
35312;SDS011;21425;50.454;30.466;2022-09-17T14:54:22;18.05;;;9.82;;
35312;SDS011;21425;50.454;30.466;2022-09-17T14:59:27;16.88;;;9.85;;
35312;SDS011;21425;50.454;30.466;2022-09-17T15:01:53;15.70;;;10.55;;
35312;SDS011;21425;50.454;30.466;2022-09-17T15:04:20;16.23;;;10.88;;
35312;SDS011;21425;50.454;30.466;2022-09-17T15:06:48;16.90;;;10.32;;
35312;SDS011;21425;50.454;30.466;2022-09-17T15:09:14;15.68;;;9.23;;
35312;SDS011;21425;50.454;30.466;2022-09-17T15:11:47;14.75;;;9.60;;
35312;SDS011;21425;50.454;30.466;2022-09-17T15:14:17;16.00;;;9.32;;
35312;SDS011;21425;50.454;30.466;2022-09-17T15:16:48;12.98;;;9.70;;
35312;SDS011;21425;50.454;30.466;2022-09-17T15:19:20;13.68;;;10.00;;
35312;SDS011;21425;50.454;30.466;2022-09-17T15:22:11;12.82;;;9.13;;
35312;SDS011;21425;50.454;30.466;2022-09-17T15:29:46;14.23;;;10.10;;
35312;SDS011;21425;50.454;30.466;2022-09-17T15:32:14;15.98;;;9.85;;
35312;SDS011;21425;50.454;30.466;2022-09-17T15:34:40;17.80;;;10.90;;
35312;SDS011;21425;50.454;30.466;2022-09-17T15:39:41;15.13;;;10.48;;
35312;SDS011;21425;50.454;30.466;2022-09-17T15:42:26;15.85;;;10.02;;
35312;SDS011;21425;50.454;30.466;2022-09-17T15:47:50;21.63;;;11.05;;
35312;SDS011;21425;50.454;30.466;2022-09-17T15:50:24;19.63;;;10.90;;
35312;SDS011;21425;50.454;30.466;2022-09-17T15:52:56;18.70;;;12.25;;
35312;SDS011;21425;50.454;30.466;2022-09-17T15:58:00;16.08;;;10.75;;
35312;SDS011;21425;50.454;30.466;2022-09-17T16:00:28;20.45;;;10.52;;
35312;SDS011;21425;50.454;30.466;2022-09-17T16:02:55;18.67;;;11.05;;
35312;SDS011;21425;50.454;30.466;2022-09-17T16:07:50;18.25;;;12.15;;
35312;SDS011;21425;50.454;30.466;2022-09-17T16:10:17;21.73;;;12.13;;
35312;SDS011;21425;50.454;30.466;2022-09-17T16:12:43;19.15;;;12.50;;
35312;SDS011;21425;50.454;30.466;2022-09-17T16:15:09;20.60;;;13.40;;
35312;SDS011;21425;50.454;30.466;2022-09-17T16:17:44;19.65;;;13.20;;
35312;SDS011;21425;50.454;30.466;2022-09-17T16:22:40;21.05;;;13.95;;
35312;SDS011;21425;50.454;30.466;2022-09-17T16:25:06;16.83;;;12.73;;
35312;SDS011;21425;50.454;30.466;2022-09-17T16:27:34;21.75;;;14.20;;
35312;SDS011;21425;50.454;30.466;2022-09-17T16:30:12;29.58;;;15.65;;
35312;SDS011;21425;50.454;30.466;2022-09-17T16:32:40;22.88;;;14.43;;
35312;SDS011;21425;50.454;30.466;2022-09-17T16:35:05;21.00;;;14.40;;
35312;SDS011;21425;50.454;30.466;2022-09-17T16:37:31;22.98;;;15.18;;
35312;SDS011;21425;50.454;30.466;2022-09-17T16:39:57;25.63;;;15.27;;
35312;SDS011;21425;50.454;30.466;2022-09-17T16:42:22;22.38;;;15.52;;
35312;SDS011;21425;50.454;30.466;2022-09-17T16:44:48;26.73;;;17.10;;
35312;SDS011;21425;50.454;30.466;2022-09-17T16:47:14;26.45;;;17.65;;
35312;SDS011;21425;50.454;30.466;2022-09-17T16:49:39;24.73;;;15.70;;
35312;SDS011;21425;50.454;30.466;2022-09-17T16:52:05;27.55;;;17.58;;
35312;SDS011;21425;50.454;30.466;2022-09-17T16:54:31;27.67;;;17.42;;
35312;SDS011;21425;50.454;30.466;2022-09-17T16:56:56;27.73;;;17.38;;
35312;SDS011;21425;50.454;30.466;2022-09-17T16:59:22;28.75;;;18.45;;
35312;SDS011;21425;50.454;30.466;2022-09-17T17:01:47;28.60;;;18.35;;
35312;SDS011;21425;50.454;30.466;2022-09-17T17:04:14;25.83;;;16.85;;
35312;SDS011;21425;50.454;30.466;2022-09-17T17:06:40;31.38;;;18.92;;
35312;SDS011;21425;50.454;30.466;2022-09-17T17:09:06;28.73;;;18.35;;
35312;SDS011;21425;50.454;30.466;2022-09-17T17:11:32;33.97;;;18.77;;
35312;SDS011;21425;50.454;30.466;2022-09-17T17:13:57;31.15;;;20.67;;
35312;SDS011;21425;50.454;30.466;2022-09-17T17:16:25;32.33;;;19.02;;
35312;SDS011;21425;50.454;30.466;2022-09-17T17:18:50;30.30;;;18.55;;
35312;SDS011;21425;50.454;30.466;2022-09-17T17:21:17;28.85;;;19.08;;
35312;SDS011;21425;50.454;30.466;2022-09-17T17:23:44;31.55;;;20.70;;
35312;SDS011;21425;50.454;30.466;2022-09-17T17:26:11;30.83;;;18.77;;
35312;SDS011;21425;50.454;30.466;2022-09-17T17:28:38;29.38;;;20.23;;
35312;SDS011;21425;50.454;30.466;2022-09-17T17:31:04;31.42;;;19.35;;
35312;SDS011;21425;50.454;30.466;2022-09-17T17:33:30;32.28;;;19.25;;
35312;SDS011;21425;50.454;30.466;2022-09-17T17:35:59;30.30;;;19.30;;
35312;SDS011;21425;50.454;30.466;2022-09-17T17:38:25;33.63;;;19.92;;
35312;SDS011;21425;50.454;30.466;2022-09-17T17:41:02;31.92;;;19.95;;
35312;SDS011;21425;50.454;30.466;2022-09-17T17:43:33;29.95;;;19.58;;
35312;SDS011;21425;50.454;30.466;2022-09-17T17:45:59;30.92;;;18.92;;